Time;durP1;ratioP1;P1;durP2;ratioP2;P2;SDS_P1;SDS_P2;PMS_P1;PMS_P2;Temp;Humidity;BMP_temperature;BMP_pressure;BME280_temperature;BME280_humidity;BME280_pressure;Samples;Min_cycle;Max_cycle;Signal;HPM_P1;HPM_P2
2022/02/26 00:01:58;;;;;;;19.30;9.40;;;;;;;2.07;51.68;99390.97;5092889;28;20036;-79
2022/02/26 00:04:25;;;;;;;16.13;8.90;;;;;;;2.13;51.76;99398.38;5058660;28;20141;-79
2022/02/26 00:06:51;;;;;;;17.90;8.43;;;;;;;2.12;51.88;99400.19;5041416;28;20574;-80
2022/02/26 00:09:17;;;;;;;17.23;8.47;;;;;;;2.08;51.69;99400.47;5057840;28;20147;-78
2022/02/26 00:11:43;;;;;;;23.77;8.57;;;;;;;2.02;51.95;99386.06;5042188;28;20138;-78
2022/02/26 00:14:09;;;;;;;18.47;8.90;;;;;;;2.05;51.68;99396.31;5041213;28;20418;-77
2022/02/26 00:16:35;;;;;;;16.37;8.90;;;;;;;2.09;51.98;99410.03;5058787;28;20048;-78
2022/02/26 00:19:02;;;;;;;16.77;9.40;;;;;;;2.17;52.09;99399.84;5075744;28;20092;-77
2022/02/26 00:21:29;;;;;;;12.93;7.57;;;;;;;2.12;52.09;99392.31;5075055;28;20047;-77
2022/02/26 00:23:55;;;;;;;16.00;8.97;;;;;;;2.06;51.82;99399.78;5057977;28;20052;-78
2022/02/26 00:26:22;;;;;;;20.77;9.20;;;;;;;2.14;51.91;99410.53;5073276;28;20066;-78
2022/02/26 00:28:48;;;;;;;16.93;8.70;;;;;;;2.29;51.56;99402.38;5039966;28;20032;-78
2022/02/26 00:31:16;;;;;;;19.50;9.07;;;;;;;2.24;51.57;99401.91;5055978;28;20568;-78
2022/02/26 00:33:43;;;;;;;13.83;7.33;;;;;;;2.14;51.98;99402.69;5038963;28;20047;-77
2022/02/26 00:36:08;;;;;;;18.53;9.63;;;;;;;2.19;51.67;99404.00;5056475;28;20051;-77
2022/02/26 00:38:34;;;;;;;16.67;9.17;;;;;;;2.15;51.78;99401.72;5055908;28;20035;-78
2022/02/26 00:41:00;;;;;;;15.37;7.53;;;;;;;2.18;51.68;99406.75;5042593;28;20035;-78
2022/02/26 00:43:26;;;;;;;24.83;9.70;;;;;;;2.26;51.48;99392.13;5072064;28;20115;-76
2022/02/26 00:45:56;;;;;;;16.40;9.23;;;;;;;2.44;51.52;99374.22;5083636;28;20105;-79
2022/02/26 00:49:46;;;;;;;19.35;8.60;;;;;;;2.27;51.37;99403.44;5075883;28;20040;-78
2022/02/26 00:51:08;;;;;;;16.00;8.53;;;;;;;2.32;51.44;99396.91;5077022;28;20040;-78
2022/02/26 00:53:34;;;;;;;15.27;7.90;;;;;;;2.31;51.46;99402.25;5057650;28;20558;-78
2022/02/26 00:56:00;;;;;;;21.57;9.80;;;;;;;2.36;51.18;99400.16;5057964;28;20226;-78
2022/02/26 00:58:26;;;;;;;16.97;8.73;;;;;;;2.40;51.14;99394.56;5040948;28;20407;-78
2022/02/26 01:00:52;;;;;;;21.40;9.30;;;;;;;2.39;50.94;99400.78;5040651;28;20043;-77
2022/02/26 01:03:18;;;;;;;19.53;9.97;;;;;;;2.43;51.21;99407.44;5057264;28;20044;-77
2022/02/26 01:05:44;;;;;;;23.87;10.00;;;;;;;2.49;51.08;99393.06;5041275;28;20065;-77
2022/02/26 01:08:10;;;;;;;17.07;9.50;;;;;;;2.47;51.08;99406.28;5040353;28;20048;-78
2022/02/26 01:10:36;;;;;;;19.77;9.50;;;;;;;2.44;51.00;99389.94;5073345;28;20142;-78
2022/02/26 01:13:02;;;;;;;17.03;8.93;;;;;;;2.54;50.91;99402.25;5056496;28;20942;-78
2022/02/26 01:15:28;;;;;;;20.37;9.23;;;;;;;2.61;50.77;99407.88;5039810;28;20569;-78
2022/02/26 01:17:54;;;;;;;17.77;9.43;;;;;;;2.65;50.61;99409.31;5039540;28;20051;-78
2022/02/26 01:20:19;;;;;;;20.73;9.53;;;;;;;2.66;50.69;99411.81;5056347;28;20454;-78
2022/02/26 01:22:45;;;;;;;18.00;9.63;;;;;;;2.63;50.42;99414.69;5040548;28;20055;-76
2022/02/26 01:25:11;;;;;;;20.20;9.93;;;;;;;2.70;50.36;99412.44;5055964;28;20075;-76
2022/02/26 01:27:39;;;;;;;22.97;9.77;;;;;;;2.65;50.49;99404.91;5040136;28;20040;-77
2022/02/26 01:30:09;;;;;;;20.63;10.37;;;;;;;2.90;50.58;99410.00;5057619;28;20100;-76
2022/02/26 01:32:35;;;;;;;20.10;9.27;;;;;;;2.66;50.20;99385.59;5056597;28;20417;-76
2022/02/26 01:35:02;;;;;;;19.80;9.23;;;;;;;3.06;49.78;99402.63;5039540;28;20036;-76
2022/02/26 01:37:29;;;;;;;18.57;9.57;;;;;;;2.96;49.38;99399.06;5039917;28;20188;-77
2022/02/26 01:39:55;;;;;;;19.73;9.23;;;;;;;3.07;49.24;99404.31;5056908;28;20143;-78
2022/02/26 01:42:21;;;;;;;17.60;9.17;;;;;;;3.05;49.14;99416.72;5039641;28;20032;-76
2022/02/26 01:44:49;;;;;;;19.77;9.73;;;;;;;3.16;49.22;99408.03;5039407;28;20126;-77
2022/02/26 01:47:15;;;;;;;19.73;9.27;;;;;;;3.09;49.39;99418.13;5090597;28;20095;-75
2022/02/26 01:49:41;;;;;;;18.53;10.00;;;;;;;3.10;49.30;99419.81;5039990;28;20071;-78
2022/02/26 01:52:08;;;;;;;19.30;9.83;;;;;;;3.11;49.61;99421.50;5071345;28;20040;-76
2022/02/26 01:54:35;;;;;;;17.33;9.63;;;;;;;3.06;49.33;99415.75;5091247;28;20040;-77
2022/02/26 01:57:02;;;;;;;18.73;9.70;;;;;;;3.01;49.49;99391.66;5040439;28;20043;-75
2022/02/26 01:59:28;;;;;;;20.77;10.07;;;;;;;2.85;49.79;99380.66;5072576;28;20044;-77
2022/02/26 02:01:54;;;;;;;16.47;9.47;;;;;;;2.81;49.83;99381.88;5055251;28;20046;-77
2022/02/26 02:04:20;;;;;;;18.77;9.83;;;;;;;2.94;49.88;99408.81;5055399;28;20051;-76
2022/02/26 02:06:46;;;;;;;18.27;9.23;;;;;;;2.79;50.19;99401.25;5072287;28;20048;-77
2022/02/26 02:09:12;;;;;;;17.57;9.07;;;;;;;2.89;49.99;99412.75;4989975;28;1415923;-77
2022/02/26 02:11:38;;;;;;;21.17;9.50;;;;;;;2.96;50.33;99424.44;5089913;28;20297;-77
2022/02/26 02:14:05;;;;;;;22.10;10.13;;;;;;;3.00;50.25;99418.84;5040070;28;20044;-76
2022/02/26 02:16:31;;;;;;;21.97;11.53;;;;;;;2.93;50.04;99429.91;5056859;28;20101;-77
2022/02/26 02:18:56;;;;;;;20.90;10.23;;;;;;;2.69;49.98;99385.38;5073082;28;20052;-77
2022/02/26 02:21:22;;;;;;;21.70;9.83;;;;;;;2.85;50.19;99417.38;5072490;28;20047;-76
2022/02/26 02:23:49;;;;;;;18.33;9.57;;;;;;;3.04;49.95;99416.84;5073548;28;20060;-78
2022/02/26 02:26:16;;;;;;;17.70;9.90;;;;;;;3.02;50.43;99422.19;5089783;28;20044;-76
2022/02/26 02:28:42;;;;;;;17.80;9.87;;;;;;;2.88;50.31;99429.41;5072772;28;20079;-77
2022/02/26 02:31:08;;;;;;;17.97;9.60;;;;;;;2.93;50.04;99419.41;5039222;28;20152;-76
2022/02/26 02:33:43;;;;;;;19.20;10.07;;;;;;;3.24;50.01;99427.47;5056782;28;20066;-77
2022/02/26 02:36:10;;;;;;;19.20;9.77;;;;;;;2.95;50.16;99434.09;5056197;28;20040;-77
2022/02/26 02:38:36;;;;;;;19.53;10.17;;;;;;;3.00;49.89;99416.22;5056895;28;20044;-78
2022/02/26 02:41:03;;;;;;;18.87;9.50;;;;;;;2.88;50.58;99427.63;5041521;28;20071;-77
2022/02/26 02:43:29;;;;;;;22.27;10.33;;;;;;;2.64;51.18;99429.47;5056097;28;20044;-77
2022/02/26 02:45:54;;;;;;;16.73;9.33;;;;;;;2.61;50.88;99428.84;5072767;28;20047;-77
2022/02/26 02:48:21;;;;;;;19.60;10.23;;;;;;;2.71;50.68;99393.97;5055753;28;20524;-76
2022/02/26 02:50:47;;;;;;;19.07;10.03;;;;;;;2.80;50.71;99416.03;5056736;28;20056;-77
2022/02/26 02:53:16;;;;;;;19.97;10.00;;;;;;;2.74;51.04;99422.59;5089310;28;20040;-77
2022/02/26 02:55:43;;;;;;;19.37;10.40;;;;;;;2.71;50.99;99412.31;5056051;28;20377;-77
2022/02/26 02:58:09;;;;;;;17.93;9.77;;;;;;;2.67;51.29;99423.16;5073016;28;20036;-77
2022/02/26 03:00:35;;;;;;;21.93;10.37;;;;;;;2.76;51.21;99432.97;5072008;28;20054;-77
2022/02/26 03:03:01;;;;;;;23.23;10.83;;;;;;;2.63;51.44;99429.59;5074125;28;20511;-79
2022/02/26 03:05:27;;;;;;;19.37;9.73;;;;;;;2.72;51.15;99427.09;5042817;28;20040;-77
2022/02/26 03:07:53;;;;;;;20.27;9.60;;;;;;;2.63;51.27;99424.34;5059921;28;20052;-77
2022/02/26 03:10:19;;;;;;;18.73;9.57;;;;;;;2.74;51.01;99435.69;5043256;28;20458;-76
2022/02/26 03:12:50;;;;;;;23.13;10.63;;;;;;;2.79;50.97;99436.19;5077430;28;20557;-76
2022/02/26 03:15:17;;;;;;;21.23;9.97;;;;;;;2.89;51.10;99418.00;5079532;28;20044;-77
2022/02/26 03:17:42;;;;;;;15.93;8.13;;;;;;;2.64;51.17;99428.63;5093846;28;20044;-76
2022/02/26 03:20:09;;;;;;;17.53;10.00;;;;;;;2.63;51.58;99429.59;5059197;28;20651;-77
2022/02/26 03:22:34;;;;;;;25.53;10.60;;;;;;;2.74;51.41;99440.09;5059283;28;20043;-77
2022/02/26 03:25:02;;;;;;;20.73;9.80;;;;;;;2.92;51.11;99438.75;5060244;28;20035;-78
2022/02/26 03:27:29;;;;;;;20.60;9.80;;;;;;;2.72;51.13;99448.06;5060113;28;20044;-78
2022/02/26 03:29:55;;;;;;;20.77;9.63;;;;;;;2.77;51.17;99448.56;5059207;28;20082;-78
2022/02/26 03:32:21;;;;;;;19.37;9.77;;;;;;;2.68;51.28;99430.91;5042507;28;20043;-78
2022/02/26 03:34:47;;;;;;;18.83;9.20;;;;;;;2.63;51.58;99448.75;5076820;28;20056;-78
2022/02/26 03:37:14;;;;;;;19.67;9.23;;;;;;;2.73;51.48;99455.00;5075181;28;20484;-76
2022/02/26 03:39:40;;;;;;;20.07;9.77;;;;;;;2.58;51.65;99448.28;5058381;28;20285;-77
2022/02/26 03:42:08;;;;;;;20.00;9.47;;;;;;;2.92;51.46;99452.69;5059134;28;20044;-77
2022/02/26 03:44:34;;;;;;;19.00;10.00;;;;;;;2.94;51.25;99463.91;5059033;28;20044;-78
2022/02/26 03:47:01;;;;;;;18.50;10.07;;;;;;;2.85;51.67;99474.22;5058352;28;20044;-77
2022/02/26 03:49:28;;;;;;;16.20;9.47;;;;;;;2.73;51.74;99464.66;5062807;28;20044;-78
2022/02/26 03:51:55;;;;;;;17.57;9.30;;;;;;;2.68;51.68;99466.78;5097567;28;20591;-77
2022/02/26 03:54:21;;;;;;;20.90;10.30;;;;;;;2.85;51.57;99472.44;5058987;28;20138;-77
2022/02/26 03:56:47;;;;;;;17.90;9.30;;;;;;;2.84;51.53;99486.53;5076350;28;20159;-78
2022/02/26 03:59:13;;;;;;;18.53;8.77;;;;;;;2.77;51.41;99479.19;5075146;28;20044;-77
2022/02/26 04:01:39;;;;;;;18.60;9.77;;;;;;;2.78;51.12;99492.19;5041932;28;20043;-80
2022/02/26 04:04:05;;;;;;;21.73;9.87;;;;;;;2.84;51.02;99499.63;5058502;28;20040;-76
2022/02/26 04:06:31;;;;;;;18.00;9.10;;;;;;;2.80;51.16;99502.56;5058565;28;20133;-78
2022/02/26 04:08:57;;;;;;;18.70;8.93;;;;;;;2.82;51.27;99514.63;5076007;28;20089;-77
2022/02/26 04:11:23;;;;;;;19.90;9.77;;;;;;;2.78;51.24;99504.50;5075324;28;20039;-77
2022/02/26 04:13:49;;;;;;;19.07;10.23;;;;;;;2.66;50.90;99493.09;5057160;28;20054;-76
2022/02/26 04:16:15;;;;;;;17.73;9.47;;;;;;;2.78;51.29;99497.44;5074231;28;20138;-75
2022/02/26 04:18:41;;;;;;;18.83;8.93;;;;;;;2.77;51.57;99503.66;5058021;28;20174;-76
2022/02/26 04:21:07;;;;;;;20.43;9.60;;;;;;;2.78;51.38;99489.56;5040846;28;20526;-76
2022/02/26 04:23:33;;;;;;;17.83;9.17;;;;;;;2.85;51.21;99503.91;5040792;28;20508;-78
2022/02/26 04:26:01;;;;;;;18.63;9.30;;;;;;;3.10;51.40;99508.19;5042202;28;20182;-77
2022/02/26 04:28:27;;;;;;;21.47;9.67;;;;;;;2.77;51.36;99494.94;5058721;28;20044;-76
2022/02/26 04:30:53;;;;;;;16.77;9.43;;;;;;;2.91;51.10;99520.97;5041865;28;20050;-76
2022/02/26 04:33:20;;;;;;;22.23;9.87;;;;;;;2.92;51.14;99502.50;5041106;28;20139;-75
2022/02/26 04:35:46;;;;;;;16.97;9.13;;;;;;;2.99;51.15;99516.84;5074202;28;20050;-76
2022/02/26 04:38:12;;;;;;;19.73;9.50;;;;;;;3.02;50.94;99511.38;5091742;28;20044;-77
2022/02/26 04:40:38;;;;;;;20.03;9.70;;;;;;;3.17;50.90;99517.25;5041376;28;20096;-77
2022/02/26 04:43:04;;;;;;;18.27;9.20;;;;;;;3.16;50.79;99523.47;5057834;28;20051;-76
2022/02/26 04:45:30;;;;;;;18.27;9.33;;;;;;;3.18;50.74;99526.81;5092142;28;20047;-76
2022/02/26 04:47:57;;;;;;;17.53;9.90;;;;;;;3.36;50.61;99515.78;5042385;28;20105;-78
2022/02/26 04:50:23;;;;;;;18.13;9.40;;;;;;;3.25;50.74;99525.41;5060197;28;20055;-77
2022/02/26 04:52:49;;;;;;;19.70;9.30;;;;;;;3.27;50.39;99524.34;5058578;28;20040;-72
2022/02/26 04:55:16;;;;;;;16.87;8.87;;;;;;;3.17;50.51;99517.25;5057229;28;20098;-72
2022/02/26 04:57:44;;;;;;;18.00;8.43;;;;;;;3.14;50.67;99528.84;5039913;28;20040;-71
2022/02/26 05:00:11;;;;;;;15.47;8.50;;;;;;;3.30;50.65;99537.25;5039680;28;20125;-72
2022/02/26 05:02:38;;;;;;;20.10;9.10;;;;;;;3.24;50.77;99540.31;5072857;28;20471;-70
2022/02/26 05:05:04;;;;;;;20.87;8.87;;;;;;;3.25;50.76;99542.00;5039953;28;20502;-75
2022/02/26 05:07:30;;;;;;;20.17;9.33;;;;;;;3.03;51.37;99551.56;5058035;28;20079;-76
2022/02/26 05:09:56;;;;;;;15.70;8.50;;;;;;;3.19;50.97;99546.84;5076057;28;20196;-72
2022/02/26 05:12:22;;;;;;;14.87;8.27;;;;;;;3.29;50.91;99546.06;5076254;28;20044;-75
2022/02/26 05:14:49;;;;;;;17.17;8.57;;;;;;;3.23;51.00;99546.50;5059303;28;20043;-73
2022/02/26 05:17:15;;;;;;;14.93;8.50;;;;;;;3.32;50.61;99547.63;5042737;28;20495;-71
2022/02/26 05:19:41;;;;;;;14.47;8.20;;;;;;;3.28;51.00;99554.03;5059325;28;20043;-67
2022/02/26 05:22:07;;;;;;;19.03;9.33;;;;;;;3.41;50.58;99557.44;5092479;28;20054;-69
2022/02/26 05:24:33;;;;;;;18.20;8.97;;;;;;;3.63;50.01;99556.66;5058722;28;20047;-67
2022/02/26 05:26:59;;;;;;;16.50;8.33;;;;;;;3.77;49.93;99561.69;5075582;28;20050;-68
2022/02/26 05:29:25;;;;;;;20.93;9.43;;;;;;;3.82;49.22;99560.38;5042835;28;20043;-67
2022/02/26 05:31:51;;;;;;;19.00;9.20;;;;;;;3.90;49.19;99559.78;5059259;28;20036;-65
2022/02/26 05:34:17;;;;;;;17.47;9.17;;;;;;;4.11;48.73;99563.38;5058969;28;20411;-66
2022/02/26 05:36:43;;;;;;;15.60;9.07;;;;;;;4.29;48.40;99561.97;5058786;28;20449;-67
2022/02/26 05:39:09;;;;;;;16.50;8.50;;;;;;;4.48;47.85;99567.41;5058703;28;20088;-67
2022/02/26 05:41:36;;;;;;;15.90;8.80;;;;;;;4.70;47.11;99570.88;5110574;28;20088;-66
2022/02/26 05:44:02;;;;;;;16.80;8.47;;;;;;;4.66;47.25;99579.09;5075496;28;20131;-73
2022/02/26 05:46:28;;;;;;;14.20;8.20;;;;;;;4.61;47.23;99566.31;5075620;28;20557;-73
2022/02/26 05:48:54;;;;;;;13.83;7.63;;;;;;;4.62;47.31;99575.06;5057576;28;20039;-73
2022/02/26 05:51:20;;;;;;;16.60;7.83;;;;;;;4.55;47.35;99587.03;5054974;28;20499;-72
2022/02/26 05:53:46;;;;;;;14.43;8.20;;;;;;;4.62;46.93;99594.31;5071361;28;20050;-73
2022/02/26 05:56:12;;;;;;;15.67;8.50;;;;;;;4.54;47.19;99585.34;5039919;28;20048;-73
2022/02/26 05:58:38;;;;;;;14.73;7.63;;;;;;;4.57;47.29;99600.88;5054769;28;20478;-72
2022/02/26 06:01:04;;;;;;;16.07;8.90;;;;;;;4.47;47.25;99608.66;5055828;28;20039;-72
2022/02/26 06:03:29;;;;;;;17.43;8.60;;;;;;;4.59;47.33;99618.22;5072946;28;20556;-74
2022/02/26 06:05:55;;;;;;;19.30;9.97;;;;;;;4.50;47.36;99626.84;5058028;28;20130;-73
2022/02/26 06:08:21;;;;;;;14.53;8.80;;;;;;;4.45;47.38;99618.47;5058538;28;20063;-73
2022/02/26 06:10:47;;;;;;;18.10;8.93;;;;;;;4.43;47.48;99607.22;5058564;28;20507;-73
2022/02/26 06:13:13;;;;;;;15.47;8.47;;;;;;;4.41;47.56;99630.16;5058116;28;20079;-73
2022/02/26 06:15:39;;;;;;;15.27;8.53;;;;;;;4.26;47.66;99625.28;5058486;28;20071;-73
2022/02/26 06:18:05;;;;;;;21.30;9.40;;;;;;;4.43;47.80;99640.56;5074714;28;20118;-73
2022/02/26 06:20:31;;;;;;;15.67;8.57;;;;;;;4.47;47.61;99639.38;5074974;28;20048;-73
2022/02/26 06:22:57;;;;;;;17.27;9.43;;;;;;;4.50;47.36;99634.72;5058441;28;20047;-73
2022/02/26 06:25:23;;;;;;;14.73;8.27;;;;;;;4.75;47.25;99647.59;5041640;28;20051;-73
2022/02/26 06:27:49;;;;;;;16.83;9.20;;;;;;;4.71;47.02;99642.72;5058068;28;20104;-73
2022/02/26 06:30:15;;;;;;;16.13;8.60;;;;;;;4.81;46.75;99643.66;5058520;28;20535;-72
2022/02/26 06:32:41;;;;;;;17.30;8.53;;;;;;;4.98;46.50;99648.44;5075066;28;20048;-72
2022/02/26 06:35:09;;;;;;;16.03;9.07;;;;;;;4.85;46.52;99626.66;5041546;28;20044;-73
2022/02/26 06:37:35;;;;;;;17.20;9.33;;;;;;;4.66;46.72;99648.31;5076237;28;20043;-73
2022/02/26 06:40:02;;;;;;;17.07;9.07;;;;;;;4.93;46.69;99663.75;5045621;28;20507;-73
2022/02/26 06:42:29;;;;;;;18.60;9.83;;;;;;;4.81;46.90;99660.25;5062460;28;20031;-73
2022/02/26 06:44:55;;;;;;;23.90;10.53;;;;;;;4.83;46.72;99658.38;5045328;28;20050;-72
2022/02/26 06:47:21;;;;;;;19.13;9.67;;;;;;;5.11;46.43;99667.53;5113721;28;20333;-72
2022/02/26 06:49:47;;;;;;;13.57;8.33;;;;;;;5.19;46.16;99670.38;5044922;28;20063;-72
2022/02/26 06:52:13;;;;;;;16.03;8.93;;;;;;;5.28;45.94;99681.97;5061597;28;20044;-73
2022/02/26 06:54:39;;;;;;;20.00;9.90;;;;;;;5.52;45.45;99670.28;5045741;28;20525;-72
2022/02/26 06:57:05;;;;;;;18.40;10.33;;;;;;;5.70;44.69;99670.56;5062458;28;20100;-73
2022/02/26 06:59:32;;;;;;;15.60;8.13;;;;;;;5.94;44.81;99682.59;5062161;28;20098;-73
2022/02/26 07:01:58;;;;;;;16.07;9.03;;;;;;;5.88;44.45;99646.19;5078638;28;20044;-72
2022/02/26 07:04:24;;;;;;;15.03;8.57;;;;;;;5.83;44.88;99677.34;5094934;28;20108;-72
2022/02/26 07:06:50;;;;;;;16.87;9.00;;;;;;;6.02;44.64;99680.16;5078291;28;20120;-72
2022/02/26 07:09:22;;;;;;;20.17;8.43;;;;;;;6.23;44.43;99673.06;5061184;28;20584;-72
2022/02/26 07:11:49;;;;;;;21.10;9.47;;;;;;;6.03;44.45;99646.69;5062037;28;20039;-72
2022/02/26 07:14:16;;;;;;;21.40;9.23;;;;;;;6.41;44.15;99684.69;5094984;28;20507;-72
2022/02/26 07:16:42;;;;;;;17.40;9.23;;;;;;;6.47;43.82;99688.63;5077713;28;20052;-74
2022/02/26 07:19:08;;;;;;;16.97;8.63;;;;;;;6.55;43.57;99692.25;5077660;28;20043;-73
2022/02/26 07:21:36;;;;;;;21.13;8.47;;;;;;;6.81;43.29;99690.03;5060989;28;20039;-72
2022/02/26 07:24:02;;;;;;;17.27;9.00;;;;;;;6.73;43.19;99698.56;5078238;28;20082;-69
2022/02/26 07:26:30;;;;;;;22.90;9.23;;;;;;;6.93;43.18;99692.41;5061557;28;20074;-70
2022/02/26 07:28:57;;;;;;;22.03;8.70;;;;;;;6.82;43.20;99678.50;5061251;28;20048;-69
2022/02/26 07:31:22;;;;;;;15.03;8.13;;;;;;;6.96;42.86;99711.59;5078145;28;20906;-69
2022/02/26 07:33:49;;;;;;;14.90;8.23;;;;;;;7.05;43.09;99710.78;5061083;28;20043;-71
2022/02/26 07:36:15;;;;;;;17.33;8.77;;;;;;;6.98;42.66;99705.22;5094358;28;20039;-69
2022/02/26 07:38:41;;;;;;;13.90;7.90;;;;;;;7.07;42.90;99704.44;5060672;28;20047;-69
2022/02/26 07:41:08;;;;;;;14.43;7.90;;;;;;;6.93;42.89;99672.28;5077938;28;20549;-70
2022/02/26 07:43:39;;;;;;;16.87;7.83;;;;;;;7.32;42.57;99706.56;5068583;28;20080;-71
2022/02/26 07:46:06;;;;;;;15.53;9.00;;;;;;;7.23;42.81;99712.66;5082650;28;20519;-68
2022/02/26 07:48:32;;;;;;;15.27;7.97;;;;;;;7.18;42.85;99716.69;5041287;28;20036;-68
2022/02/26 07:50:58;;;;;;;14.07;7.83;;;;;;;7.23;42.82;99730.31;5057182;28;20134;-66
2022/02/26 07:53:25;;;;;;;14.17;7.70;;;;;;;7.46;42.46;99731.75;5057509;28;20040;-68
2022/02/26 07:55:52;;;;;;;15.30;7.70;;;;;;;7.52;42.31;99731.25;5040214;28;20044;-69
2022/02/26 07:58:20;;;;;;;14.60;8.00;;;;;;;7.47;42.28;99731.66;5040977;28;20040;-71
2022/02/26 08:00:46;;;;;;;13.93;7.57;;;;;;;7.50;42.11;99735.81;5040952;28;20055;-69
2022/02/26 08:03:12;;;;;;;15.33;8.77;;;;;;;7.52;42.08;99737.34;5044681;28;20055;-69
2022/02/26 08:05:37;;;;;;;16.77;7.83;;;;;;;7.59;41.76;99745.56;5059203;28;20089;-70
2022/02/26 08:08:04;;;;;;;15.80;7.87;;;;;;;7.55;41.93;99747.63;5043858;28;20047;-68
2022/02/26 08:10:30;;;;;;;19.03;7.47;;;;;;;7.58;41.81;99743.91;5043469;28;20040;-67
2022/02/26 08:12:57;;;;;;;17.80;7.73;;;;;;;7.80;42.00;99747.13;5056488;28;20036;-67
2022/02/26 08:15:25;;;;;;;17.63;8.27;;;;;;;7.89;42.09;99734.88;5056310;28;20039;-68
2022/02/26 08:17:51;;;;;;;19.17;8.43;;;;;;;7.86;41.79;99738.63;5056354;28;20126;-67
2022/02/26 08:20:19;;;;;;;16.13;7.47;;;;;;;8.10;41.26;99748.81;5039696;28;20051;-66
2022/02/26 08:22:46;;;;;;;13.43;7.57;;;;;;;8.03;41.40;99759.09;5056682;28;20051;-67
2022/02/26 08:25:13;;;;;;;19.93;7.80;;;;;;;7.89;42.04;99759.50;5073043;28;20466;-67
2022/02/26 08:27:40;;;;;;;17.43;7.40;;;;;;;7.93;41.40;99757.44;5072607;28;20048;-69
2022/02/26 08:30:09;;;;;;;15.10;7.23;;;;;;;8.07;41.56;99763.13;5073502;28;20039;-68
2022/02/26 08:32:35;;;;;;;12.60;7.30;;;;;;;8.01;41.13;99752.28;5072901;28;20062;-66
2022/02/26 08:35:02;;;;;;;15.67;7.30;;;;;;;8.25;40.99;99761.50;5040701;28;20448;-69
2022/02/26 08:37:29;;;;;;;19.20;7.70;;;;;;;8.20;40.92;99763.69;5065046;28;20131;-69
2022/02/26 08:39:56;;;;;;;14.13;6.75;;;;;;;8.28;41.26;99757.75;5058428;28;20885;-71
2022/02/26 08:42:22;;;;;;;15.82;7.68;;;;;;;8.31;41.11;99758.31;5043168;28;20051;-69
2022/02/26 08:44:48;;;;;;;13.87;7.30;;;;;;;8.35;41.07;99764.13;5059802;28;20138;-67
2022/02/26 08:47:14;;;;;;;13.25;8.18;;;;;;;8.23;40.86;99757.31;5043184;28;20046;-64
2022/02/26 08:49:41;;;;;;;22.83;7.18;;;;;;;8.30;40.97;99763.72;5043209;28;20521;-65
2022/02/26 08:52:08;;;;;;;15.65;6.95;;;;;;;8.54;40.79;99761.47;5076301;28;20055;-68
2022/02/26 08:54:34;;;;;;;11.47;6.73;;;;;;;8.34;40.70;99762.47;5076677;28;20521;-66
2022/02/26 08:57:01;;;;;;;12.38;7.25;;;;;;;8.35;40.55;99761.47;5076710;28;20051;-65
2022/02/26 08:59:27;;;;;;;16.90;6.82;;;;;;;8.26;40.82;99767.63;5059274;28;20048;-65
2022/02/26 09:01:53;;;;;;;14.32;6.78;;;;;;;8.25;41.45;99760.66;5075888;28;20507;-65
2022/02/26 09:04:20;;;;;;;16.80;6.80;;;;;;;8.37;40.93;99763.03;5075942;28;20138;-65
2022/02/26 09:06:46;;;;;;;15.05;6.63;;;;;;;8.45;40.69;99755.22;5072173;28;20126;-64
2022/02/26 09:09:12;;;;;;;12.40;6.75;;;;;;;8.52;40.38;99755.47;5063359;28;20143;-65
2022/02/26 09:11:38;;;;;;;12.82;6.65;;;;;;;8.59;40.34;99743.34;5076522;28;20071;-68
2022/02/26 09:14:05;;;;;;;16.30;6.53;;;;;;;8.89;40.22;99763.47;5060163;28;20130;-64
2022/02/26 09:16:32;;;;;;;11.10;6.97;;;;;;;8.84;40.21;99766.53;5111552;28;20093;-64
2022/02/26 09:18:58;;;;;;;18.70;6.72;;;;;;;8.78;40.05;99772.41;5059992;28;20515;-65
2022/02/26 09:21:24;;;;;;;11.18;6.20;;;;;;;8.75;40.06;99769.22;5059508;28;20075;-68
2022/02/26 09:23:51;;;;;;;12.38;6.53;;;;;;;8.74;40.75;99773.69;5059286;28;20058;-67
2022/02/26 09:26:17;;;;;;;9.57;5.95;;;;;;;8.72;40.50;99770.34;5075923;28;20491;-65
2022/02/26 09:28:43;;;;;;;11.52;6.05;;;;;;;8.72;40.35;99765.03;5058959;28;20042;-66
2022/02/26 09:31:12;;;;;;;17.30;8.82;;;;;;;9.07;40.36;99767.84;5075887;28;20130;-68
2022/02/26 09:33:39;;;;;;;14.90;6.72;;;;;;;8.91;39.66;99777.41;5057509;28;20125;-66
2022/02/26 09:36:08;;;;;;;12.73;5.85;;;;;;;8.72;40.31;99777.47;5058563;28;20578;-65
2022/02/26 09:38:35;;;;;;;11.55;6.20;;;;;;;8.76;40.46;99782.34;5071529;28;20047;-65
2022/02/26 09:41:03;;;;;;;12.35;6.07;;;;;;;8.95;40.29;99784.91;5074210;28;20047;-65
2022/02/26 09:43:30;;;;;;;17.90;6.60;;;;;;;8.79;40.52;99776.75;5042736;28;20598;-66
2022/02/26 09:45:57;;;;;;;17.85;6.00;;;;;;;8.86;40.35;99790.22;5059187;28;20107;-65
2022/02/26 09:48:24;;;;;;;9.95;6.07;;;;;;;8.96;39.79;99778.66;5059214;28;20039;-65
2022/02/26 09:50:50;;;;;;;9.63;5.13;;;;;;;8.87;39.61;99763.63;5042934;28;20048;-65
2022/02/26 09:53:17;;;;;;;9.50;5.38;;;;;;;9.28;39.08;99781.72;5042923;28;20055;-65
2022/02/26 09:55:44;;;;;;;8.93;5.43;;;;;;;9.38;38.92;99792.28;5059966;28;20044;-67
2022/02/26 09:58:11;;;;;;;9.75;5.57;;;;;;;9.51;38.88;99782.16;5043230;28;20442;-65
2022/02/26 10:00:37;;;;;;;12.07;5.57;;;;;;;9.25;38.87;99787.31;5076197;28;20104;-65
2022/02/26 10:03:04;;;;;;;14.85;6.05;;;;;;;9.27;39.17;99781.88;5059228;28;20111;-65
2022/02/26 10:05:32;;;;;;;21.33;6.65;;;;;;;9.22;39.07;99790.28;5075978;28;20043;-65
2022/02/26 10:07:58;;;;;;;12.73;6.50;;;;;;;9.40;38.89;99777.06;5055519;28;20078;-65
2022/02/26 10:10:29;;;;;;;10.75;5.57;;;;;;;9.54;38.93;99777.41;5039066;28;20051;-65
2022/02/26 10:12:57;;;;;;;10.38;5.13;;;;;;;9.37;38.66;99786.16;5073989;28;20044;-65
2022/02/26 10:15:29;;;;;;;10.30;5.97;;;;;;;9.47;39.01;99781.63;5043115;28;20606;-65
2022/02/26 10:18:11;;;;;;;9.85;5.70;;;;;;;9.57;39.18;99787.72;5093154;28;20040;-65
2022/02/26 10:20:45;;;;;;;8.43;5.05;;;;;;;9.78;38.40;99782.13;5094834;28;20056;-65
2022/02/26 10:23:15;;;;;;;10.70;5.55;;;;;;;9.70;38.34;99782.88;5093095;28;20117;-65
2022/02/26 10:25:41;;;;;;;10.80;5.22;;;;;;;9.60;38.34;99797.19;5059803;28;20043;-65
2022/02/26 10:28:11;;;;;;;11.40;5.10;;;;;;;9.73;38.35;99792.38;5042934;28;20503;-66
2022/02/26 10:30:40;;;;;;;11.57;5.25;;;;;;;9.73;38.34;99798.50;5093187;28;20032;-65
2022/02/26 10:33:08;;;;;;;11.10;5.65;;;;;;;9.56;38.45;99801.94;5093009;28;20047;-65
2022/02/26 10:35:40;;;;;;;14.93;6.43;;;;;;;9.76;38.45;99802.69;5059217;28;20094;-65
2022/02/26 10:38:30;;;;;;;12.85;7.47;;;;;;;9.99;37.81;99811.91;5075727;28;20519;-65
2022/02/26 10:41:00;;;;;;;11.88;5.95;;;;;;;9.73;37.83;99813.59;5066022;28;20052;-65
2022/02/26 10:43:44;;;;;;;12.82;6.38;;;;;;;9.96;37.54;99809.53;5076640;28;20411;-65
2022/02/26 10:46:28;;;;;;;15.02;6.60;;;;;;;9.90;37.82;99813.63;5093685;28;20068;-65
2022/02/26 10:49:02;;;;;;;19.00;6.53;;;;;;;9.82;37.97;99807.41;5076133;28;20040;-66
2022/02/26 10:51:30;;;;;;;11.82;5.03;;;;;;;9.84;37.93;99816.06;5076543;28;20136;-65
2022/02/26 10:53:57;;;;;;;13.20;4.70;;;;;;;9.81;37.76;99817.16;5093017;28;20558;-65
2022/02/26 10:56:37;;;;;;;11.95;4.85;;;;;;;9.88;37.78;99820.06;5042724;28;20040;-65
2022/02/26 10:59:05;;;;;;;10.98;4.57;;;;;;;9.76;37.90;99808.81;5059185;28;20135;-65
2022/02/26 11:01:32;;;;;;;12.40;6.75;;;;;;;9.63;37.95;99818.09;5092621;28;20056;-65
2022/02/26 11:03:58;;;;;;;11.45;4.80;;;;;;;9.49;38.27;99821.25;5092373;28;20050;-65
2022/02/26 11:06:25;;;;;;;15.73;4.93;;;;;;;9.64;38.12;99823.25;5042136;28;20047;-65
2022/02/26 11:08:51;;;;;;;10.75;4.50;;;;;;;9.77;37.60;99825.56;5058104;28;20060;-65
2022/02/26 11:11:19;;;;;;;10.55;4.35;;;;;;;9.87;37.64;99827.16;5042252;28;20040;-65
2022/02/26 11:13:45;;;;;;;10.50;4.70;;;;;;;9.71;37.69;99832.31;5075352;28;20076;-66
2022/02/26 11:16:13;;;;;;;10.18;4.65;;;;;;;9.75;37.87;99827.53;5058673;28;20093;-65
2022/02/26 11:18:43;;;;;;;6.93;3.90;;;;;;;9.57;38.04;99834.59;5092122;28;20048;-66
2022/02/26 11:21:12;;;;;;;8.02;4.05;;;;;;;9.57;37.91;99835.44;5058681;28;20052;-65
2022/02/26 11:23:38;;;;;;;6.93;3.50;;;;;;;9.64;38.02;99828.56;5091750;28;20142;-65
2022/02/26 11:26:07;;;;;;;11.50;4.25;;;;;;;9.83;37.80;99825.81;5075000;28;20420;-65
2022/02/26 11:28:35;;;;;;;7.35;3.95;;;;;;;9.81;37.73;99829.63;5058529;28;20040;-65
2022/02/26 11:31:07;;;;;;;8.80;4.15;;;;;;;9.85;37.85;99834.47;5058154;28;20108;-65
2022/02/26 11:33:34;;;;;;;10.45;4.35;;;;;;;9.77;37.99;99834.38;5075164;28;20044;-65